createdAt,value
2018-07-26T00:04:11.481Z,100451.92
2018-07-26T00:09:10.286Z,100451.33
2018-07-26T00:14:07.822Z,100450.66
2018-07-26T00:19:05.350Z,100448.64
2018-07-26T00:24:02.830Z,100442.23
2018-07-26T00:29:04.713Z,100452.64
2018-07-26T00:34:04.781Z,100448.86
2018-07-26T00:39:05.990Z,100452.00
2018-07-26T00:44:04.724Z,100462.26
2018-07-26T00:49:02.259Z,100457.30
2018-07-26T00:53:59.796Z,100459.48
2018-07-26T00:58:58.447Z,100457.45
2018-07-26T01:03:55.937Z,100455.25
2018-07-26T01:08:53.486Z,100460.66
2018-07-26T01:13:50.961Z,100461.23
2018-07-26T01:18:48.465Z,100455.72
2018-07-26T01:23:45.971Z,100453.31
2018-07-26T01:28:43.453Z,100454.89
2018-07-26T01:33:40.975Z,100457.29
2018-07-26T01:38:38.478Z,100459.02
2018-07-26T01:43:48.414Z,100456.45
2018-07-26T01:48:45.905Z,100450.46
2018-07-26T01:53:44.190Z,100451.80
2018-07-26T01:58:41.689Z,100442.61
2018-07-26T02:03:39.652Z,100434.37
2018-07-26T02:08:37.220Z,100440.85
2018-07-26T02:13:34.703Z,100433.44
2018-07-26T02:18:32.234Z,100440.77
2018-07-26T02:23:29.751Z,100441.83
2018-07-26T02:28:27.229Z,100443.08
2018-07-26T02:33:24.706Z,100439.17
2018-07-26T02:38:22.185Z,100437.60
2018-07-26T02:43:19.686Z,100444.94
2018-07-26T02:48:17.170Z,100446.27
2018-07-26T02:53:14.782Z,100451.47
2018-07-26T02:58:12.323Z,100453.22
2018-07-26T03:03:09.811Z,100452.05
2018-07-26T03:08:07.317Z,100455.34
2018-07-26T03:13:05.003Z,100452.94
2018-07-26T03:18:02.540Z,100453.86
2018-07-26T03:23:00.064Z,100455.19
2018-07-26T03:27:57.541Z,100459.31
2018-07-26T03:32:55.039Z,100460.13
2018-07-26T03:37:52.550Z,100458.03
2018-07-26T03:42:50.103Z,100462.09
2018-07-26T03:47:47.627Z,100460.00
2018-07-26T03:52:45.223Z,100459.66
2018-07-26T03:57:42.768Z,100467.55
2018-07-26T04:02:40.256Z,100465.62
2018-07-26T04:07:37.758Z,100467.55
2018-07-26T04:12:35.282Z,100476.65
2018-07-26T04:17:32.790Z,100469.60
2018-07-26T04:22:30.290Z,100471.57
2018-07-26T04:27:27.822Z,100469.88
2018-07-26T04:32:25.330Z,100469.69
2018-07-26T04:37:22.874Z,100475.27
2018-07-26T04:42:20.379Z,100478.98
2018-07-26T04:47:17.915Z,100484.35
2018-07-26T04:52:15.414Z,100487.13
2018-07-26T04:57:12.962Z,100487.63
2018-07-26T05:02:10.782Z,100492.51
2018-07-26T05:07:08.315Z,100494.43
2018-07-26T05:12:05.883Z,100493.05
2018-07-26T05:17:03.406Z,100496.61
2018-07-26T05:22:00.895Z,100493.70
2018-07-26T05:26:58.391Z,100503.45
2018-07-26T05:31:55.941Z,100502.60
2018-07-26T05:36:53.505Z,100505.38
2018-07-26T05:41:51.010Z,100504.97
2018-07-26T05:46:48.489Z,100512.30
2018-07-26T05:51:46.019Z,100504.50
2018-07-26T05:56:43.538Z,100511.63
2018-07-26T06:01:41.053Z,100517.22
2018-07-26T06:06:38.573Z,100522.17
2018-07-26T06:11:36.077Z,100524.89
2018-07-26T06:16:33.554Z,100533.88
2018-07-26T06:21:31.073Z,100538.18
2018-07-26T06:26:28.624Z,100527.66
2018-07-26T06:31:26.180Z,100528.78
2018-07-26T06:36:23.720Z,100524.41
2018-07-26T06:41:21.405Z,100525.52
2018-07-26T06:46:18.938Z,100521.98
2018-07-26T06:51:16.413Z,100525.60
2018-07-26T06:56:13.911Z,100533.51
2018-07-26T07:01:11.477Z,100528.97
2018-07-26T07:06:09.129Z,100521.35
2018-07-26T07:11:06.624Z,100524.41
2018-07-26T07:16:04.170Z,100527.26
2018-07-26T07:21:01.693Z,100521.50
2018-07-26T07:25:59.291Z,100524.03
2018-07-26T07:30:56.779Z,100519.74
2018-07-26T07:35:54.281Z,100519.36
2018-07-26T07:40:51.819Z,100519.11
2018-07-26T07:45:49.308Z,100525.20
2018-07-26T07:50:46.831Z,100524.16
2018-07-26T07:55:44.463Z,100524.31
2018-07-26T08:00:41.959Z,100529.36
2018-07-26T08:05:39.541Z,100531.66
2018-07-26T08:10:37.074Z,100527.52
2018-07-26T08:15:34.598Z,100531.28
2018-07-26T08:20:32.091Z,100526.45
2018-07-26T08:25:29.619Z,100531.17
2018-07-26T08:30:27.161Z,100531.89
2018-07-26T08:35:24.653Z,100527.66
2018-07-26T08:40:22.150Z,100526.22
2018-07-26T08:45:19.671Z,100525.42
2018-07-26T08:50:17.187Z,100524.36
2018-07-26T08:55:14.738Z,100524.10
2018-07-26T09:00:15.662Z,100519.70
2018-07-26T09:05:13.238Z,100517.77
2018-07-26T09:10:10.753Z,100515.29
2018-07-26T09:15:08.378Z,100508.23
2018-07-26T09:20:06.101Z,100509.28
2018-07-26T09:25:03.721Z,100513.85
2018-07-26T09:30:01.227Z,100502.55
2018-07-26T09:34:58.723Z,100504.60
2018-07-26T09:39:56.259Z,100504.87
2018-07-26T09:44:53.786Z,100498.05
2018-07-26T09:49:51.377Z,100498.64
2018-07-26T09:54:48.971Z,100487.48
2018-07-26T09:59:47.479Z,100488.45
2018-07-26T10:04:45.281Z,100487.58
2018-07-26T10:09:42.771Z,100495.63
2018-07-26T10:14:40.290Z,100490.78
2018-07-26T10:19:37.830Z,100489.82
2018-07-26T10:24:35.377Z,100484.43
2018-07-26T10:29:35.532Z,100482.75
2018-07-26T10:34:33.184Z,100481.48
2018-07-26T10:39:30.668Z,100474.76
2018-07-26T10:44:28.181Z,100464.32
2018-07-26T10:49:25.725Z,100470.34
2018-07-26T10:54:23.205Z,100457.83
2018-07-26T10:59:22.975Z,100455.20
2018-07-26T11:04:20.533Z,100461.34
2018-07-26T11:09:18.051Z,100463.91
2018-07-26T11:14:15.535Z,100454.89
2018-07-26T11:19:13.055Z,100451.55
2018-07-26T11:24:10.601Z,100449.12
2018-07-26T11:29:19.527Z,100439.92
2018-07-26T11:34:17.123Z,100438.38
2018-07-26T11:39:14.638Z,100428.45
2018-07-26T11:44:12.231Z,100429.70
2018-07-26T11:49:09.758Z,100420.08
2018-07-26T11:54:07.670Z,100421.80
2018-07-26T11:59:08.773Z,100420.83
2018-07-26T12:04:06.715Z,100415.83
2018-07-26T12:09:07.400Z,100412.81
2018-07-26T12:14:08.880Z,100405.98
2018-07-26T12:19:06.398Z,100399.08
2018-07-26T12:24:03.918Z,100399.16
2018-07-26T12:29:03.055Z,100394.53
2018-07-26T12:34:00.679Z,100392.97
2018-07-26T12:38:58.220Z,100383.20
2018-07-26T12:43:55.739Z,100360.61
2018-07-26T12:48:53.262Z,100373.17
2018-07-26T12:53:50.803Z,100367.03
2018-07-26T12:58:48.325Z,100372.14
2018-07-26T13:03:45.855Z,100368.44
2018-07-26T13:08:43.366Z,100366.52
2018-07-26T13:13:45.079Z,100361.01
2018-07-26T13:18:45.012Z,100365.13
2018-07-26T13:23:45.773Z,100356.64
2018-07-26T13:28:43.382Z,100365.95
2018-07-26T13:33:40.923Z,100360.42
2018-07-26T13:38:38.474Z,100359.85
2018-07-26T13:43:35.973Z,100352.37
2018-07-26T13:48:34.321Z,100350.89
2018-07-26T13:53:31.839Z,100341.80
2018-07-26T13:58:31.292Z,100340.69
2018-07-26T14:03:33.768Z,100339.94
2018-07-26T14:08:31.384Z,100325.48
2018-07-26T14:13:28.941Z,100329.81
2018-07-26T14:18:26.487Z,100313.06
2018-07-26T14:23:29.678Z,100322.63
2018-07-26T14:28:27.184Z,100317.12
2018-07-26T14:33:24.698Z,100315.49
2018-07-26T14:38:22.292Z,100320.06
2018-07-26T14:43:19.817Z,100312.67
2018-07-26T14:48:19.917Z,100300.78
2018-07-26T14:53:22.077Z,100302.39
2018-07-26T14:58:21.829Z,100292.85
2018-07-26T15:03:19.443Z,100291.77
2018-07-26T15:08:16.979Z,100299.33
2018-07-26T15:13:14.608Z,100284.22
2018-07-26T15:18:12.131Z,100288.98
2018-07-26T15:23:09.657Z,100296.59
2018-07-26T15:28:07.201Z,100298.97
2018-07-26T15:33:04.742Z,100291.02
2018-07-26T15:38:02.257Z,100294.91
2018-07-26T15:42:59.786Z,100285.17
2018-07-26T15:47:57.291Z,100285.38
2018-07-26T15:52:54.822Z,100283.04
2018-07-26T15:57:52.457Z,100286.77
2018-07-26T16:02:50.001Z,100285.48
2018-07-26T16:07:47.551Z,100283.14
2018-07-26T16:12:45.135Z,100278.15
2018-07-26T16:17:42.807Z,100287.84
2018-07-26T16:22:40.317Z,100283.48
2018-07-26T16:27:38.065Z,100283.79
2018-07-26T16:32:35.722Z,100287.57
2018-07-26T16:37:33.287Z,100285.16
2018-07-26T16:42:30.795Z,100283.19
2018-07-26T16:47:28.287Z,100279.83
2018-07-26T16:52:25.831Z,100278.63
2018-07-26T16:57:23.385Z,100273.34
2018-07-26T17:02:20.944Z,100278.47
2018-07-26T17:07:18.489Z,100276.55
2018-07-26T17:12:16.060Z,100285.13
2018-07-26T17:17:13.661Z,100282.20
2018-07-26T17:22:11.394Z,100280.05
2018-07-26T17:27:08.946Z,100281.05
2018-07-26T17:32:06.518Z,100271.13
2018-07-26T17:37:04.083Z,100291.91
2018-07-26T17:42:01.699Z,100284.29
2018-07-26T17:46:59.236Z,100291.41
2018-07-26T17:51:56.765Z,100292.59
2018-07-26T17:56:56.235Z,100297.25
2018-07-26T18:01:53.883Z,100295.54
2018-07-26T18:06:51.403Z,100294.53
2018-07-26T18:11:48.946Z,100302.73
2018-07-26T18:16:46.522Z,100296.53
2018-07-26T18:21:44.064Z,100287.73
2018-07-26T18:26:41.640Z,100297.91
2018-07-26T18:31:39.285Z,100298.18
2018-07-26T18:36:36.729Z,100306.59
2018-07-26T18:41:34.427Z,100316.73
2018-07-26T18:46:32.192Z,100318.85
2018-07-26T18:51:29.825Z,100321.78
2018-07-26T18:56:27.340Z,100333.55
2018-07-26T19:01:24.862Z,100338.13
2018-07-26T19:06:22.430Z,100335.05
2018-07-26T19:11:19.954Z,100338.42
2018-07-26T19:16:17.477Z,100351.93
2018-07-26T19:21:14.977Z,100353.95
2018-07-26T19:26:12.476Z,100355.27
2018-07-26T19:31:09.974Z,100369.69
2018-07-26T19:36:07.537Z,100377.12
2018-07-26T19:41:05.103Z,100378.92
2018-07-26T19:46:02.638Z,100375.75
2018-07-26T19:51:00.169Z,100379.42
2018-07-26T19:55:57.657Z,100386.91
2018-07-26T20:00:55.154Z,100384.77
2018-07-26T20:05:52.663Z,100383.37
2018-07-26T20:10:50.148Z,100390.03
2018-07-26T20:15:47.652Z,100390.91
2018-07-26T20:20:45.141Z,100388.84
2018-07-26T20:25:45.391Z,100394.94
2018-07-26T20:30:42.897Z,100398.68
2018-07-26T20:35:40.400Z,100394.72
2018-07-26T20:40:37.878Z,100401.81
2018-07-26T20:45:35.873Z,100408.80
2018-07-26T20:50:33.499Z,100408.77
2018-07-26T20:55:31.066Z,100421.34
2018-07-26T21:00:28.576Z,100405.76
2018-07-26T21:05:26.113Z,100421.03
2018-07-26T21:10:23.666Z,100413.08
2018-07-26T21:15:21.157Z,100415.85
2018-07-26T21:20:18.654Z,100415.79
2018-07-26T21:25:16.126Z,100413.52
2018-07-26T21:30:13.602Z,100412.60
2018-07-26T21:35:11.146Z,100419.75
2018-07-26T21:40:08.710Z,100421.41
2018-07-26T21:45:06.639Z,100425.08
2018-07-26T21:50:04.258Z,100424.11
2018-07-26T21:55:01.738Z,100427.23
2018-07-26T22:00:00.250Z,100425.91
2018-07-26T22:04:57.762Z,100424.28
2018-07-26T22:09:55.251Z,100425.85
2018-07-26T22:14:52.715Z,100423.81
2018-07-26T22:19:50.185Z,100432.04
2018-07-26T22:24:47.656Z,100434.19
2018-07-26T22:29:46.186Z,100438.09
2018-07-26T22:34:43.621Z,100442.56
2018-07-26T22:39:41.062Z,100447.64
2018-07-26T22:44:38.510Z,100449.53
2018-07-26T22:49:35.964Z,100452.69
2018-07-26T22:54:33.426Z,100454.27
2018-07-26T22:59:37.719Z,100456.98
2018-07-26T23:04:35.179Z,100451.97
2018-07-26T23:09:32.641Z,100458.42
2018-07-26T23:14:30.150Z,100459.83
2018-07-26T23:19:27.620Z,100458.06
2018-07-26T23:24:25.069Z,100456.36
2018-07-26T23:29:30.325Z,100458.20
2018-07-26T23:34:27.911Z,100457.55
2018-07-26T23:39:25.363Z,100457.98
2018-07-26T23:44:22.815Z,100457.30
2018-07-26T23:49:20.275Z,100454.92
2018-07-26T23:54:17.721Z,100461.92
2018-07-26T23:59:19.919Z,100460.54
